Redington, Arizona
Current Conditions -  °F | °C
As of 6:58 AM on Sunday 25 Jan 2015 (Local Time) from KDMA Reporting Station
Clear Clear  
Wind Chill: 51°   Ceiling: Unl
Heat Index: 51°   Visibility: 10mi
Dew Point: 11°   Wind: 13mph
Humidity: 19%   Direction: 120°ESE
Pressure: 30.11"   Gusts: NA
Location:  32.1865°N, 110.265°W
Report Text: KDMA 251358Z AUTO 12011KT 10SM CLR 11/M12 A3011 RMK AO2 SLP178 T01081119 $
Loading
Personal Weather Stations






























Interactive Weather Map New forecast layout! Learn more

10-Day Weather Forecast

Advertisements
Track Severe Weather on mobile